sensor_id;sensor_type;location;lat;lon;timestamp;temperature;humidity
7574;DHT22;3828;48.922;9.116;2023-03-15T00:00:11;2.70;99.90
7574;DHT22;3828;48.922;9.116;2023-03-15T00:02:38;2.70;99.90
7574;DHT22;3828;48.922;9.116;2023-03-15T00:05:06;2.70;99.90
7574;DHT22;3828;48.922;9.116;2023-03-15T00:07:33;2.60;99.90
7574;DHT22;3828;48.922;9.116;2023-03-15T00:17:22;2.60;99.90
7574;DHT22;3828;48.922;9.116;2023-03-15T00:19:49;2.60;99.90
7574;DHT22;3828;48.922;9.116;2023-03-15T00:22:16;2.60;99.90
7574;DHT22;3828;48.922;9.116;2023-03-15T00:24:43;2.70;99.90
7574;DHT22;3828;48.922;9.116;2023-03-15T00:27:10;2.70;99.90
7574;DHT22;3828;48.922;9.116;2023-03-15T00:29:36;2.70;99.90
7574;DHT22;3828;48.922;9.116;2023-03-15T00:32:03;2.70;99.90
7574;DHT22;3828;48.922;9.116;2023-03-15T00:34:32;2.70;99.90
7574;DHT22;3828;48.922;9.116;2023-03-15T00:39:26;2.70;99.90
7574;DHT22;3828;48.922;9.116;2023-03-15T00:41:53;2.70;99.90
7574;DHT22;3828;48.922;9.116;2023-03-15T00:44:21;2.70;99.90
7574;DHT22;3828;48.922;9.116;2023-03-15T00:46:48;2.70;99.90
7574;DHT22;3828;48.922;9.116;2023-03-15T00:49:15;2.70;99.90
7574;DHT22;3828;48.922;9.116;2023-03-15T00:51:45;2.60;99.90
7574;DHT22;3828;48.922;9.116;2023-03-15T00:54:12;2.60;99.90
7574;DHT22;3828;48.922;9.116;2023-03-15T00:56:39;2.50;99.90
7574;DHT22;3828;48.922;9.116;2023-03-15T00:59:06;2.50;99.90
7574;DHT22;3828;48.922;9.116;2023-03-15T01:01:34;2.40;99.90
7574;DHT22;3828;48.922;9.116;2023-03-15T01:04:01;2.40;99.90
7574;DHT22;3828;48.922;9.116;2023-03-15T01:06:28;2.30;99.90
7574;DHT22;3828;48.922;9.116;2023-03-15T01:08:56;2.20;99.90
7574;DHT22;3828;48.922;9.116;2023-03-15T01:11:25;2.20;99.90
7574;DHT22;3828;48.922;9.116;2023-03-15T01:13:55;2.20;99.90
7574;DHT22;3828;48.922;9.116;2023-03-15T01:16:24;2.20;99.90
7574;DHT22;3828;48.922;9.116;2023-03-15T01:18:53;2.10;99.90
7574;DHT22;3828;48.922;9.116;2023-03-15T01:21:22;2.00;99.90
7574;DHT22;3828;48.922;9.116;2023-03-15T01:23:51;2.10;99.90
7574;DHT22;3828;48.922;9.116;2023-03-15T01:26:20;2.10;99.90
7574;DHT22;3828;48.922;9.116;2023-03-15T01:28:47;2.00;99.90
7574;DHT22;3828;48.922;9.116;2023-03-15T01:31:17;2.10;99.90
7574;DHT22;3828;48.922;9.116;2023-03-15T01:36:12;2.00;99.90
7574;DHT22;3828;48.922;9.116;2023-03-15T01:38:39;2.00;99.90
7574;DHT22;3828;48.922;9.116;2023-03-15T01:41:06;2.00;99.90
7574;DHT22;3828;48.922;9.116;2023-03-15T01:43:34;2.00;99.90
7574;DHT22;3828;48.922;9.116;2023-03-15T01:46:04;1.90;99.90
7574;DHT22;3828;48.922;9.116;2023-03-15T01:48:36;1.90;99.90
7574;DHT22;3828;48.922;9.116;2023-03-15T01:51:08;1.90;99.90
7574;DHT22;3828;48.922;9.116;2023-03-15T01:53:43;2.20;99.90
7574;DHT22;3828;48.922;9.116;2023-03-15T01:56:12;1.90;99.90
7574;DHT22;3828;48.922;9.116;2023-03-15T01:58:42;1.80;99.90
7574;DHT22;3828;48.922;9.116;2023-03-15T02:03:41;1.80;99.90
7574;DHT22;3828;48.922;9.116;2023-03-15T02:06:13;1.80;99.90
7574;DHT22;3828;48.922;9.116;2023-03-15T02:08:45;1.80;99.90
7574;DHT22;3828;48.922;9.116;2023-03-15T02:11:17;1.80;99.90
7574;DHT22;3828;48.922;9.116;2023-03-15T02:13:47;1.80;99.90
7574;DHT22;3828;48.922;9.116;2023-03-15T02:16:15;1.80;99.90
7574;DHT22;3828;48.922;9.116;2023-03-15T02:18:41;1.80;99.90
7574;DHT22;3828;48.922;9.116;2023-03-15T02:21:15;1.80;99.90
7574;DHT22;3828;48.922;9.116;2023-03-15T02:23:49;1.70;99.90
7574;DHT22;3828;48.922;9.116;2023-03-15T02:26:23;1.70;99.90
7574;DHT22;3828;48.922;9.116;2023-03-15T02:28:53;1.70;99.90
7574;DHT22;3828;48.922;9.116;2023-03-15T02:31:21;1.70;99.90
7574;DHT22;3828;48.922;9.116;2023-03-15T02:33:49;1.70;99.90
7574;DHT22;3828;48.922;9.116;2023-03-15T02:36:19;1.70;99.90
7574;DHT22;3828;48.922;9.116;2023-03-15T02:38:47;1.70;99.90
7574;DHT22;3828;48.922;9.116;2023-03-15T02:41:18;1.70;99.90
7574;DHT22;3828;48.922;9.116;2023-03-15T02:43:47;1.70;99.90
7574;DHT22;3828;48.922;9.116;2023-03-15T02:46:16;1.70;99.90
7574;DHT22;3828;48.922;9.116;2023-03-15T02:48:44;1.70;99.90
7574;DHT22;3828;48.922;9.116;2023-03-15T02:51:17;1.70;99.90
7574;DHT22;3828;48.922;9.116;2023-03-15T02:53:45;1.70;99.90
7574;DHT22;3828;48.922;9.116;2023-03-15T02:56:12;1.70;99.90
7574;DHT22;3828;48.922;9.116;2023-03-15T02:58:40;1.70;99.90
7574;DHT22;3828;48.922;9.116;2023-03-15T03:01:10;1.60;99.90
7574;DHT22;3828;48.922;9.116;2023-03-15T03:03:39;1.60;99.90
7574;DHT22;3828;48.922;9.116;2023-03-15T03:06:05;1.60;99.90
7574;DHT22;3828;48.922;9.116;2023-03-15T03:08:33;1.60;99.90
7574;DHT22;3828;48.922;9.116;2023-03-15T03:11:00;1.60;99.90
7574;DHT22;3828;48.922;9.116;2023-03-15T03:18:24;1.70;99.90
7574;DHT22;3828;48.922;9.116;2023-03-15T03:20:54;1.70;99.90
7574;DHT22;3828;48.922;9.116;2023-03-15T03:23:22;1.70;99.90
7574;DHT22;3828;48.922;9.116;2023-03-15T03:25:50;1.70;99.90
7574;DHT22;3828;48.922;9.116;2023-03-15T03:28:18;1.70;99.90
7574;DHT22;3828;48.922;9.116;2023-03-15T03:30:45;1.70;99.90
7574;DHT22;3828;48.922;9.116;2023-03-15T03:33:12;1.60;99.90
7574;DHT22;3828;48.922;9.116;2023-03-15T03:38:09;1.70;99.90
7574;DHT22;3828;48.922;9.116;2023-03-15T03:40:36;1.70;99.90
7574;DHT22;3828;48.922;9.116;2023-03-15T03:43:03;2.60;99.90
7574;DHT22;3828;48.922;9.116;2023-03-15T03:45:30;1.70;99.90
7574;DHT22;3828;48.922;9.116;2023-03-15T03:47:57;1.70;99.90
7574;DHT22;3828;48.922;9.116;2023-03-15T03:50:24;1.70;99.90
7574;DHT22;3828;48.922;9.116;2023-03-15T03:52:51;1.80;99.90
7574;DHT22;3828;48.922;9.116;2023-03-15T03:55:20;1.80;99.90
7574;DHT22;3828;48.922;9.116;2023-03-15T03:57:50;1.70;99.90
7574;DHT22;3828;48.922;9.116;2023-03-15T04:00:19;1.70;99.90
7574;DHT22;3828;48.922;9.116;2023-03-15T04:02:46;1.70;99.90
7574;DHT22;3828;48.922;9.116;2023-03-15T04:05:15;1.70;99.90
7574;DHT22;3828;48.922;9.116;2023-03-15T04:10:10;1.70;99.90
7574;DHT22;3828;48.922;9.116;2023-03-15T04:12:41;1.70;99.90
7574;DHT22;3828;48.922;9.116;2023-03-15T04:15:08;1.60;99.90
7574;DHT22;3828;48.922;9.116;2023-03-15T04:17:36;1.60;99.90
7574;DHT22;3828;48.922;9.116;2023-03-15T04:20:04;1.60;99.90
7574;DHT22;3828;48.922;9.116;2023-03-15T04:22:33;1.40;99.90
7574;DHT22;3828;48.922;9.116;2023-03-15T04:25:00;1.50;99.90
7574;DHT22;3828;48.922;9.116;2023-03-15T04:27:27;1.50;99.90
7574;DHT22;3828;48.922;9.116;2023-03-15T04:29:55;1.50;99.90
7574;DHT22;3828;48.922;9.116;2023-03-15T04:32:23;1.50;99.90
7574;DHT22;3828;48.922;9.116;2023-03-15T04:34:50;1.40;99.90
7574;DHT22;3828;48.922;9.116;2023-03-15T04:37:16;1.30;99.90
7574;DHT22;3828;48.922;9.116;2023-03-15T04:39:43;1.20;99.90
7574;DHT22;3828;48.922;9.116;2023-03-15T04:42:10;1.20;99.90
7574;DHT22;3828;48.922;9.116;2023-03-15T04:44:37;1.10;99.90
7574;DHT22;3828;48.922;9.116;2023-03-15T04:47:06;1.20;99.90
7574;DHT22;3828;48.922;9.116;2023-03-15T04:49:33;1.10;99.90
7574;DHT22;3828;48.922;9.116;2023-03-15T04:52:00;1.00;99.90
7574;DHT22;3828;48.922;9.116;2023-03-15T04:54:26;1.00;99.90
7574;DHT22;3828;48.922;9.116;2023-03-15T04:56:53;0.90;99.90
7574;DHT22;3828;48.922;9.116;2023-03-15T04:59:20;0.90;99.90
7574;DHT22;3828;48.922;9.116;2023-03-15T05:01:49;0.90;99.90
7574;DHT22;3828;48.922;9.116;2023-03-15T05:04:18;0.90;99.90
7574;DHT22;3828;48.922;9.116;2023-03-15T05:06:44;0.90;99.90
7574;DHT22;3828;48.922;9.116;2023-03-15T05:09:11;0.90;99.90
7574;DHT22;3828;48.922;9.116;2023-03-15T05:11:43;1.00;99.90
7574;DHT22;3828;48.922;9.116;2023-03-15T05:14:10;1.10;99.90
7574;DHT22;3828;48.922;9.116;2023-03-15T05:21:32;1.10;99.90
7574;DHT22;3828;48.922;9.116;2023-03-15T05:23:59;1.10;99.90
7574;DHT22;3828;48.922;9.116;2023-03-15T05:28:53;1.10;99.90
7574;DHT22;3828;48.922;9.116;2023-03-15T05:31:20;1.20;99.90
7574;DHT22;3828;48.922;9.116;2023-03-15T05:36:14;1.20;99.90
7574;DHT22;3828;48.922;9.116;2023-03-15T05:38:43;1.20;99.90
7574;DHT22;3828;48.922;9.116;2023-03-15T05:41:10;1.20;99.90
7574;DHT22;3828;48.922;9.116;2023-03-15T05:46:04;1.10;99.90
7574;DHT22;3828;48.922;9.116;2023-03-15T05:48:31;1.00;99.90
7574;DHT22;3828;48.922;9.116;2023-03-15T05:50:57;1.00;99.90
7574;DHT22;3828;48.922;9.116;2023-03-15T05:53:24;1.00;99.90
7574;DHT22;3828;48.922;9.116;2023-03-15T05:55:52;0.90;99.90
7574;DHT22;3828;48.922;9.116;2023-03-15T05:58:19;0.90;99.90
7574;DHT22;3828;48.922;9.116;2023-03-15T06:00:46;1.00;99.90
7574;DHT22;3828;48.922;9.116;2023-03-15T06:03:13;1.00;99.90
7574;DHT22;3828;48.922;9.116;2023-03-15T06:05:41;1.00;99.90
7574;DHT22;3828;48.922;9.116;2023-03-15T06:08:08;1.10;99.90
7574;DHT22;3828;48.922;9.116;2023-03-15T06:10:35;1.20;99.90
7574;DHT22;3828;48.922;9.116;2023-03-15T06:13:05;1.30;99.90
7574;DHT22;3828;48.922;9.116;2023-03-15T06:15:32;1.30;99.90
7574;DHT22;3828;48.922;9.116;2023-03-15T06:22:53;1.50;99.90
7574;DHT22;3828;48.922;9.116;2023-03-15T06:25:19;1.60;99.90
7574;DHT22;3828;48.922;9.116;2023-03-15T06:27:49;1.70;99.90
7574;DHT22;3828;48.922;9.116;2023-03-15T06:30:17;1.80;99.90
7574;DHT22;3828;48.922;9.116;2023-03-15T06:35:12;2.20;99.90
7574;DHT22;3828;48.922;9.116;2023-03-15T06:37:39;2.30;99.90
7574;DHT22;3828;48.922;9.116;2023-03-15T06:40:07;2.40;99.90
7574;DHT22;3828;48.922;9.116;2023-03-15T06:42:35;2.50;99.90
7574;DHT22;3828;48.922;9.116;2023-03-15T06:45:03;2.50;99.90
7574;DHT22;3828;48.922;9.116;2023-03-15T06:47:31;2.70;99.90
7574;DHT22;3828;48.922;9.116;2023-03-15T06:52:25;3.00;99.90
7574;DHT22;3828;48.922;9.116;2023-03-15T06:54:54;3.20;99.90
7574;DHT22;3828;48.922;9.116;2023-03-15T06:57:21;3.30;99.90
7574;DHT22;3828;48.922;9.116;2023-03-15T06:59:48;3.40;99.90
7574;DHT22;3828;48.922;9.116;2023-03-15T07:02:16;3.50;99.90
7574;DHT22;3828;48.922;9.116;2023-03-15T07:04:45;3.60;99.90
7574;DHT22;3828;48.922;9.116;2023-03-15T07:07:13;3.80;99.90
7574;DHT22;3828;48.922;9.116;2023-03-15T07:09:40;3.80;99.90
7574;DHT22;3828;48.922;9.116;2023-03-15T07:12:09;3.90;99.90
7574;DHT22;3828;48.922;9.116;2023-03-15T07:17:03;4.50;99.90
7574;DHT22;3828;48.922;9.116;2023-03-15T07:21:58;4.90;99.90
7574;DHT22;3828;48.922;9.116;2023-03-15T07:39:11;5.70;99.90
7574;DHT22;3828;48.922;9.116;2023-03-15T07:41:38;5.80;99.90
7574;DHT22;3828;48.922;9.116;2023-03-15T07:44:05;5.70;99.90
7574;DHT22;3828;48.922;9.116;2023-03-15T07:56:22;5.30;99.90
7574;DHT22;3828;48.922;9.116;2023-03-15T08:08:37;6.10;99.90
7574;DHT22;3828;48.922;9.116;2023-03-15T08:13:32;6.80;99.90
7574;DHT22;3828;48.922;9.116;2023-03-15T08:30:44;8.90;99.90
7574;DHT22;3828;48.922;9.116;2023-03-15T08:40:41;9.00;99.90
7574;DHT22;3828;48.922;9.116;2023-03-15T08:48:12;9.20;99.90
7574;DHT22;3828;48.922;9.116;2023-03-15T08:50:39;8.90;99.90
7574;DHT22;3828;48.922;9.116;2023-03-15T08:53:13;10.10;99.90
7574;DHT22;3828;48.922;9.116;2023-03-15T08:58:08;8.20;99.90
7574;DHT22;3828;48.922;9.116;2023-03-15T09:00:44;7.90;99.90
7574;DHT22;3828;48.922;9.116;2023-03-15T09:03:12;7.70;99.90
7574;DHT22;3828;48.922;9.116;2023-03-15T09:20:24;6.60;99.90
7574;DHT22;3828;48.922;9.116;2023-03-15T09:22:55;6.40;99.90
7574;DHT22;3828;48.922;9.116;2023-03-15T09:25:23;6.30;99.90
7574;DHT22;3828;48.922;9.116;2023-03-15T09:30:18;6.50;99.90
7574;DHT22;3828;48.922;9.116;2023-03-15T09:35:14;7.00;99.90
7574;DHT22;3828;48.922;9.116;2023-03-15T09:37:42;6.90;99.90
7574;DHT22;3828;48.922;9.116;2023-03-15T09:40:15;6.90;99.90
7574;DHT22;3828;48.922;9.116;2023-03-15T09:42:53;7.00;99.90
7574;DHT22;3828;48.922;9.116;2023-03-15T09:45:27;7.20;99.90
7574;DHT22;3828;48.922;9.116;2023-03-15T09:48:01;7.30;99.90
7574;DHT22;3828;48.922;9.116;2023-03-15T09:50:31;7.70;99.90
7574;DHT22;3828;48.922;9.116;2023-03-15T09:53:03;7.90;99.90
7574;DHT22;3828;48.922;9.116;2023-03-15T09:57:59;8.40;99.90
7574;DHT22;3828;48.922;9.116;2023-03-15T10:00:32;8.90;99.90
7574;DHT22;3828;48.922;9.116;2023-03-15T10:05:36;9.30;99.90
7574;DHT22;3828;48.922;9.116;2023-03-15T10:08:09;9.50;99.90
7574;DHT22;3828;48.922;9.116;2023-03-15T10:10:40;9.40;99.90
7574;DHT22;3828;48.922;9.116;2023-03-15T10:13:30;9.40;99.90
7574;DHT22;3828;48.922;9.116;2023-03-15T10:16:02;9.00;99.90
7574;DHT22;3828;48.922;9.116;2023-03-15T10:18:41;8.60;99.90
7574;DHT22;3828;48.922;9.116;2023-03-15T10:21:19;8.20;99.90
7574;DHT22;3828;48.922;9.116;2023-03-15T10:23:54;8.20;99.90
7574;DHT22;3828;48.922;9.116;2023-03-15T10:26:24;8.20;99.90
7574;DHT22;3828;48.922;9.116;2023-03-15T10:31:24;9.50;99.90
7574;DHT22;3828;48.922;9.116;2023-03-15T10:36:21;10.10;99.90
7574;DHT22;3828;48.922;9.116;2023-03-15T10:41:28;9.90;99.90
7574;DHT22;3828;48.922;9.116;2023-03-15T10:43:58;9.30;99.90
7574;DHT22;3828;48.922;9.116;2023-03-15T10:46:27;8.80;99.90
7574;DHT22;3828;48.922;9.116;2023-03-15T10:48:56;8.50;99.90
7574;DHT22;3828;48.922;9.116;2023-03-15T10:51:26;8.10;99.90
7574;DHT22;3828;48.922;9.116;2023-03-15T10:53:55;7.80;99.90
7574;DHT22;3828;48.922;9.116;2023-03-15T10:56:27;7.60;99.90
7574;DHT22;3828;48.922;9.116;2023-03-15T10:58:55;7.50;99.90
7574;DHT22;3828;48.922;9.116;2023-03-15T11:01:24;7.30;99.90
7574;DHT22;3828;48.922;9.116;2023-03-15T11:04:12;7.30;99.90
7574;DHT22;3828;48.922;9.116;2023-03-15T11:06:42;7.10;99.90
7574;DHT22;3828;48.922;9.116;2023-03-15T11:09:11;7.20;99.90
7574;DHT22;3828;48.922;9.116;2023-03-15T11:11:58;7.10;99.90
7574;DHT22;3828;48.922;9.116;2023-03-15T11:14:31;7.20;99.90
7574;DHT22;3828;48.922;9.116;2023-03-15T11:16:59;7.10;99.90
7574;DHT22;3828;48.922;9.116;2023-03-15T11:19:27;7.10;99.90
7574;DHT22;3828;48.922;9.116;2023-03-15T11:21:57;7.10;99.90
7574;DHT22;3828;48.922;9.116;2023-03-15T11:24:27;7.00;99.90
7574;DHT22;3828;48.922;9.116;2023-03-15T11:26:59;6.90;99.90
7574;DHT22;3828;48.922;9.116;2023-03-15T11:29:28;6.80;99.90
7574;DHT22;3828;48.922;9.116;2023-03-15T11:31:58;6.70;99.90
7574;DHT22;3828;48.922;9.116;2023-03-15T11:34:36;6.70;99.90
7574;DHT22;3828;48.922;9.116;2023-03-15T11:37:10;6.60;99.90
7574;DHT22;3828;48.922;9.116;2023-03-15T11:39:42;6.50;99.90
7574;DHT22;3828;48.922;9.116;2023-03-15T11:42:13;6.50;99.90
7574;DHT22;3828;48.922;9.116;2023-03-15T11:44:45;6.60;99.90
7574;DHT22;3828;48.922;9.116;2023-03-15T11:47:17;6.50;99.90
7574;DHT22;3828;48.922;9.116;2023-03-15T11:49:50;6.60;99.90
7574;DHT22;3828;48.922;9.116;2023-03-15T11:52:20;6.60;99.90
7574;DHT22;3828;48.922;9.116;2023-03-15T12:00:54;6.60;99.90
7574;DHT22;3828;48.922;9.116;2023-03-15T12:03:39;6.50;99.90
7574;DHT22;3828;48.922;9.116;2023-03-15T12:08:53;6.60;99.90
7574;DHT22;3828;48.922;9.116;2023-03-15T12:11:44;6.70;99.90
7574;DHT22;3828;48.922;9.116;2023-03-15T12:14:26;6.70;99.90
7574;DHT22;3828;48.922;9.116;2023-03-15T12:20:25;6.60;99.90
7574;DHT22;3828;48.922;9.116;2023-03-15T12:23:07;6.60;99.90
7574;DHT22;3828;48.922;9.116;2023-03-15T12:25:45;6.30;99.90
7574;DHT22;3828;48.922;9.116;2023-03-15T12:28:19;6.10;99.90
7574;DHT22;3828;48.922;9.116;2023-03-15T12:30:52;5.90;99.90
7574;DHT22;3828;48.922;9.116;2023-03-15T12:33:23;5.70;99.90
7574;DHT22;3828;48.922;9.116;2023-03-15T12:35:58;5.70;99.90
7574;DHT22;3828;48.922;9.116;2023-03-15T12:38:32;5.70;99.90
7574;DHT22;3828;48.922;9.116;2023-03-15T12:41:05;5.80;99.90
7574;DHT22;3828;48.922;9.116;2023-03-15T12:43:38;5.90;99.90
7574;DHT22;3828;48.922;9.116;2023-03-15T12:48:34;6.10;99.90
7574;DHT22;3828;48.922;9.116;2023-03-15T12:51:09;6.00;99.90
7574;DHT22;3828;48.922;9.116;2023-03-15T12:53:43;5.60;99.90
7574;DHT22;3828;48.922;9.116;2023-03-15T12:59:31;5.00;99.90
7574;DHT22;3828;48.922;9.116;2023-03-15T13:02:00;4.90;99.90
7574;DHT22;3828;48.922;9.116;2023-03-15T13:04:30;4.90;99.90
7574;DHT22;3828;48.922;9.116;2023-03-15T13:07:21;4.90;99.90
7574;DHT22;3828;48.922;9.116;2023-03-15T13:12:46;5.20;99.90
7574;DHT22;3828;48.922;9.116;2023-03-15T13:15:19;5.70;99.90
7574;DHT22;3828;48.922;9.116;2023-03-15T13:17:50;6.20;99.90
7574;DHT22;3828;48.922;9.116;2023-03-15T13:20:39;6.30;99.90
7574;DHT22;3828;48.922;9.116;2023-03-15T13:23:13;6.40;99.90
7574;DHT22;3828;48.922;9.116;2023-03-15T13:25:48;7.10;99.90
7574;DHT22;3828;48.922;9.116;2023-03-15T13:28:21;7.80;99.90
7574;DHT22;3828;48.922;9.116;2023-03-15T13:30:50;8.40;99.90
7574;DHT22;3828;48.922;9.116;2023-03-15T13:33:20;9.40;99.90
7574;DHT22;3828;48.922;9.116;2023-03-15T13:35:55;9.80;99.90
7574;DHT22;3828;48.922;9.116;2023-03-15T13:38:25;10.00;99.90
7574;DHT22;3828;48.922;9.116;2023-03-15T13:43:24;9.50;99.90
7574;DHT22;3828;48.922;9.116;2023-03-15T13:50:49;8.00;99.90
7574;DHT22;3828;48.922;9.116;2023-03-15T13:53:20;7.70;99.90
7574;DHT22;3828;48.922;9.116;2023-03-15T13:55:49;7.80;99.90
7574;DHT22;3828;48.922;9.116;2023-03-15T13:58:17;8.90;99.90
7574;DHT22;3828;48.922;9.116;2023-03-15T14:03:13;11.20;99.90
7574;DHT22;3828;48.922;9.116;2023-03-15T14:05:43;11.70;99.90
7574;DHT22;3828;48.922;9.116;2023-03-15T14:08:24;11.30;99.90
7574;DHT22;3828;48.922;9.116;2023-03-15T14:11:04;10.60;99.90
7574;DHT22;3828;48.922;9.116;2023-03-15T14:13:32;9.00;99.90
7574;DHT22;3828;48.922;9.116;2023-03-15T14:16:02;7.80;99.90
7574;DHT22;3828;48.922;9.116;2023-03-15T14:18:31;7.40;99.90
7574;DHT22;3828;48.922;9.116;2023-03-15T14:21:00;6.80;99.90
7574;DHT22;3828;48.922;9.116;2023-03-15T14:23:30;6.40;99.90
7574;DHT22;3828;48.922;9.116;2023-03-15T14:26:05;6.10;99.90
7574;DHT22;3828;48.922;9.116;2023-03-15T14:28:32;5.80;99.90
7574;DHT22;3828;48.922;9.116;2023-03-15T14:31:00;5.60;99.90
7574;DHT22;3828;48.922;9.116;2023-03-15T14:33:31;5.30;99.90
7574;DHT22;3828;48.922;9.116;2023-03-15T14:36:00;5.20;99.90
7574;DHT22;3828;48.922;9.116;2023-03-15T14:38:33;5.10;99.90
7574;DHT22;3828;48.922;9.116;2023-03-15T14:41:18;5.00;99.90
7574;DHT22;3828;48.922;9.116;2023-03-15T14:43:45;4.90;99.90
7574;DHT22;3828;48.922;9.116;2023-03-15T14:48:39;5.00;99.90
7574;DHT22;3828;48.922;9.116;2023-03-15T14:51:11;5.10;99.90
7574;DHT22;3828;48.922;9.116;2023-03-15T14:53:42;5.10;99.90
7574;DHT22;3828;48.922;9.116;2023-03-15T14:56:10;5.10;99.90
7574;DHT22;3828;48.922;9.116;2023-03-15T15:01:04;4.90;99.90
7574;DHT22;3828;48.922;9.116;2023-03-15T15:03:34;4.90;99.90
7574;DHT22;3828;48.922;9.116;2023-03-15T15:06:04;4.90;99.90
7574;DHT22;3828;48.922;9.116;2023-03-15T15:11:04;5.00;99.90
7574;DHT22;3828;48.922;9.116;2023-03-15T15:18:29;4.80;99.90
7574;DHT22;3828;48.922;9.116;2023-03-15T15:20:57;4.70;99.90
7574;DHT22;3828;48.922;9.116;2023-03-15T15:23:27;4.70;99.90
7574;DHT22;3828;48.922;9.116;2023-03-15T15:25:57;4.60;99.90
7574;DHT22;3828;48.922;9.116;2023-03-15T15:28:25;4.50;99.90
7574;DHT22;3828;48.922;9.116;2023-03-15T15:35:48;4.40;99.90
7574;DHT22;3828;48.922;9.116;2023-03-15T15:43:10;4.50;99.90
7574;DHT22;3828;48.922;9.116;2023-03-15T15:45:38;4.50;99.90
7574;DHT22;3828;48.922;9.116;2023-03-15T15:48:06;4.60;99.90
7574;DHT22;3828;48.922;9.116;2023-03-15T15:50:34;4.50;99.90
7574;DHT22;3828;48.922;9.116;2023-03-15T15:53:03;4.60;99.90
7574;DHT22;3828;48.922;9.116;2023-03-15T15:55:33;4.60;99.90
7574;DHT22;3828;48.922;9.116;2023-03-15T15:58:00;4.70;99.90
7574;DHT22;3828;48.922;9.116;2023-03-15T16:00:29;4.70;99.90
7574;DHT22;3828;48.922;9.116;2023-03-15T16:02:57;4.80;99.90
7574;DHT22;3828;48.922;9.116;2023-03-15T16:05:26;4.90;99.90
7574;DHT22;3828;48.922;9.116;2023-03-15T16:07:55;4.90;99.90
7574;DHT22;3828;48.922;9.116;2023-03-15T16:10:27;5.00;99.90
7574;DHT22;3828;48.922;9.116;2023-03-15T16:20:18;5.00;99.90
7574;DHT22;3828;48.922;9.116;2023-03-15T16:22:46;5.00;99.90
7574;DHT22;3828;48.922;9.116;2023-03-15T16:25:17;5.00;99.90
7574;DHT22;3828;48.922;9.116;2023-03-15T16:30:18;5.40;99.90
7574;DHT22;3828;48.922;9.116;2023-03-15T16:35:13;5.30;99.90
7574;DHT22;3828;48.922;9.116;2023-03-15T16:37:42;5.30;99.90
7574;DHT22;3828;48.922;9.116;2023-03-15T16:40:14;5.20;99.90
7574;DHT22;3828;48.922;9.116;2023-03-15T16:45:14;5.10;99.90
7574;DHT22;3828;48.922;9.116;2023-03-15T16:50:09;5.10;99.90
7574;DHT22;3828;48.922;9.116;2023-03-15T16:55:06;5.10;99.90
7574;DHT22;3828;48.922;9.116;2023-03-15T17:07:26;4.70;99.90
7574;DHT22;3828;48.922;9.116;2023-03-15T17:10:07;4.60;99.90
7574;DHT22;3828;48.922;9.116;2023-03-15T17:15:21;4.30;99.90
7574;DHT22;3828;48.922;9.116;2023-03-15T17:22:55;4.00;99.90
7574;DHT22;3828;48.922;9.116;2023-03-15T17:25:23;3.90;99.90
7574;DHT22;3828;48.922;9.116;2023-03-15T17:30:21;3.80;99.90
7574;DHT22;3828;48.922;9.116;2023-03-15T17:35:16;3.70;99.90
7574;DHT22;3828;48.922;9.116;2023-03-15T17:40:18;3.70;99.90
7574;DHT22;3828;48.922;9.116;2023-03-15T17:42:47;3.70;99.90
7574;DHT22;3828;48.922;9.116;2023-03-15T17:45:16;3.60;99.90
7574;DHT22;3828;48.922;9.116;2023-03-15T17:52:40;3.50;99.90
7574;DHT22;3828;48.922;9.116;2023-03-15T17:55:13;3.40;99.90
7574;DHT22;3828;48.922;9.116;2023-03-15T18:00:11;3.30;99.90
7574;DHT22;3828;48.922;9.116;2023-03-15T18:05:12;3.10;99.90
7574;DHT22;3828;48.922;9.116;2023-03-15T18:10:09;3.00;99.90
7574;DHT22;3828;48.922;9.116;2023-03-15T18:17:32;2.80;99.90
7574;DHT22;3828;48.922;9.116;2023-03-15T18:19:58;2.80;99.90
7574;DHT22;3828;48.922;9.116;2023-03-15T18:34:42;2.60;99.90
7574;DHT22;3828;48.922;9.116;2023-03-15T18:42:04;2.50;99.90
7574;DHT22;3828;48.922;9.116;2023-03-15T18:49:26;2.40;99.90
7574;DHT22;3828;48.922;9.116;2023-03-15T18:51:54;2.30;99.90
7574;DHT22;3828;48.922;9.116;2023-03-15T18:56:51;2.30;99.90
7574;DHT22;3828;48.922;9.116;2023-03-15T19:09:07;2.40;99.90
7574;DHT22;3828;48.922;9.116;2023-03-15T19:19:00;2.50;99.90
7574;DHT22;3828;48.922;9.116;2023-03-15T19:26:22;2.60;99.90
7574;DHT22;3828;48.922;9.116;2023-03-15T19:28:50;2.60;99.90
7574;DHT22;3828;48.922;9.116;2023-03-15T19:31:16;2.60;99.90
7574;DHT22;3828;48.922;9.116;2023-03-15T19:38:39;2.70;99.90
7574;DHT22;3828;48.922;9.116;2023-03-15T19:41:07;2.70;99.90
7574;DHT22;3828;48.922;9.116;2023-03-15T19:43:36;2.60;99.90
7574;DHT22;3828;48.922;9.116;2023-03-15T19:46:07;2.70;99.90
7574;DHT22;3828;48.922;9.116;2023-03-15T19:55:56;2.80;99.90
7574;DHT22;3828;48.922;9.116;2023-03-15T20:00:54;2.80;99.90
7574;DHT22;3828;48.922;9.116;2023-03-15T20:03:22;2.80;99.90
7574;DHT22;3828;48.922;9.116;2023-03-15T20:18:06;2.50;99.90
7574;DHT22;3828;48.922;9.116;2023-03-15T20:20:35;2.40;99.90
7574;DHT22;3828;48.922;9.116;2023-03-15T20:35:19;2.10;99.90
7574;DHT22;3828;48.922;9.116;2023-03-15T20:40:14;2.00;99.90
7574;DHT22;3828;48.922;9.116;2023-03-15T20:42:42;1.90;99.90
7574;DHT22;3828;48.922;9.116;2023-03-15T20:45:10;3.70;99.90
7574;DHT22;3828;48.922;9.116;2023-03-15T20:50:06;0.40;99.90
7574;DHT22;3828;48.922;9.116;2023-03-15T20:52:35;2.00;99.90
7574;DHT22;3828;48.922;9.116;2023-03-15T21:02:24;1.90;99.90
7574;DHT22;3828;48.922;9.116;2023-03-15T21:09:46;1.80;99.90
7574;DHT22;3828;48.922;9.116;2023-03-15T21:17:07;1.60;99.90
7574;DHT22;3828;48.922;9.116;2023-03-15T21:26:57;1.60;99.90
7574;DHT22;3828;48.922;9.116;2023-03-15T21:29:31;1.50;99.90
7574;DHT22;3828;48.922;9.116;2023-03-15T21:34:26;1.40;99.90
7574;DHT22;3828;48.922;9.116;2023-03-15T21:44:15;1.20;99.90
7574;DHT22;3828;48.922;9.116;2023-03-15T21:46:42;1.20;99.90
7574;DHT22;3828;48.922;9.116;2023-03-15T21:54:04;1.10;99.90
7574;DHT22;3828;48.922;9.116;2023-03-15T22:01:27;1.00;99.90
7574;DHT22;3828;48.922;9.116;2023-03-15T22:03:54;1.00;99.90
7574;DHT22;3828;48.922;9.116;2023-03-15T22:06:21;0.90;99.90
7574;DHT22;3828;48.922;9.116;2023-03-15T22:18:39;0.90;99.90
7574;DHT22;3828;48.922;9.116;2023-03-15T22:26:00;0.80;99.90
7574;DHT22;3828;48.922;9.116;2023-03-15T22:28:27;0.80;99.90
7574;DHT22;3828;48.922;9.116;2023-03-15T22:35:54;0.70;99.90
7574;DHT22;3828;48.922;9.116;2023-03-15T22:40:48;0.60;99.90
7574;DHT22;3828;48.922;9.116;2023-03-15T22:43:15;0.60;99.90
7574;DHT22;3828;48.922;9.116;2023-03-15T22:48:09;0.50;99.90
7574;DHT22;3828;48.922;9.116;2023-03-15T22:50:36;0.50;99.90
7574;DHT22;3828;48.922;9.116;2023-03-15T22:53:04;0.50;99.90
7574;DHT22;3828;48.922;9.116;2023-03-15T22:55:31;0.50;99.90
7574;DHT22;3828;48.922;9.116;2023-03-15T22:57:57;0.50;99.90
7574;DHT22;3828;48.922;9.116;2023-03-15T23:00:24;0.50;99.90
7574;DHT22;3828;48.922;9.116;2023-03-15T23:05:18;0.40;99.90
7574;DHT22;3828;48.922;9.116;2023-03-15T23:10:14;0.50;99.90
7574;DHT22;3828;48.922;9.116;2023-03-15T23:12:41;0.40;99.90
7574;DHT22;3828;48.922;9.116;2023-03-15T23:15:09;0.50;99.90
7574;DHT22;3828;48.922;9.116;2023-03-15T23:17:36;0.50;99.90
7574;DHT22;3828;48.922;9.116;2023-03-15T23:20:04;0.50;99.90
7574;DHT22;3828;48.922;9.116;2023-03-15T23:22:33;0.50;99.90
7574;DHT22;3828;48.922;9.116;2023-03-15T23:27:28;0.50;99.90
7574;DHT22;3828;48.922;9.116;2023-03-15T23:32:23;0.50;99.90
7574;DHT22;3828;48.922;9.116;2023-03-15T23:34:50;0.50;99.90
7574;DHT22;3828;48.922;9.116;2023-03-15T23:37:18;0.40;99.90
7574;DHT22;3828;48.922;9.116;2023-03-15T23:39:45;0.40;99.90
7574;DHT22;3828;48.922;9.116;2023-03-15T23:42:12;0.40;99.90
7574;DHT22;3828;48.922;9.116;2023-03-15T23:44:40;0.40;99.90